createdAt,value
2023-01-04T00:01:33.583Z,129.90
2023-01-04T00:04:01.568Z,136.00
2023-01-04T00:06:29.393Z,157.90
2023-01-04T00:08:57.241Z,111.80
2023-01-04T00:11:24.902Z,80.12
2023-01-04T00:13:56.346Z,65.83
2023-01-04T00:16:26.994Z,93.92
2023-01-04T00:18:55.601Z,71.65
2023-01-04T00:21:27.397Z,60.17
2023-01-04T00:23:58.528Z,56.88
2023-01-04T00:26:33.066Z,54.13
2023-01-04T00:29:05.297Z,51.20
2023-01-04T00:31:34.337Z,62.35
2023-01-04T00:34:04.732Z,58.13
2023-01-04T00:36:33.475Z,69.03
2023-01-04T00:39:09.343Z,81.25
2023-01-04T00:42:02.309Z,64.27
2023-01-04T00:44:16.290Z,52.05
2023-01-04T00:46:44.657Z,48.42
2023-01-04T00:49:12.641Z,57.43
2023-01-04T00:51:42.250Z,59.33
2023-01-04T00:54:15.780Z,60.55
2023-01-04T00:56:44.170Z,67.97
2023-01-04T00:59:17.804Z,55.55
2023-01-04T01:01:46.366Z,63.65
2023-01-04T01:04:17.794Z,62.33
2023-01-04T01:06:46.081Z,57.08
2023-01-04T01:09:14.747Z,70.87
2023-01-04T01:11:42.959Z,65.55
2023-01-04T01:14:18.249Z,80.60
2023-01-04T01:17:02.454Z,63.17
2023-01-04T01:19:16.662Z,60.15
2023-01-04T01:21:44.726Z,61.00
2023-01-04T01:24:16.678Z,60.03
2023-01-04T01:26:44.494Z,57.60
2023-01-04T01:29:12.258Z,53.58
2023-01-04T01:31:41.165Z,53.83
2023-01-04T01:34:12.122Z,54.95
2023-01-04T01:36:39.862Z,57.78
2023-01-04T01:39:07.922Z,58.08
2023-01-04T01:41:36.024Z,60.88
2023-01-04T01:44:44.699Z,58.45
2023-01-04T01:47:20.107Z,60.75
2023-01-04T01:49:51.696Z,61.85
2023-01-04T01:52:24.639Z,61.55
2023-01-04T01:54:59.735Z,59.55
2023-01-04T01:57:31.941Z,60.90
2023-01-04T02:00:05.237Z,60.10
2023-01-04T02:02:35.540Z,57.60
2023-01-04T02:05:03.767Z,63.33
2023-01-04T02:07:31.923Z,58.33
2023-01-04T02:10:00.201Z,62.33
2023-01-04T02:12:28.164Z,63.83
2023-01-04T02:14:56.229Z,59.40
2023-01-04T02:17:47.056Z,60.95
2023-01-04T02:20:38.185Z,63.08
2023-01-04T02:23:28.880Z,59.73
2023-01-04T02:26:05.172Z,59.05
2023-01-04T02:28:43.500Z,64.03
2023-01-04T02:31:40.368Z,71.40
2023-01-04T02:34:45.804Z,60.20
2023-01-04T02:37:33.303Z,61.28
2023-01-04T02:40:22.832Z,73.83
2023-01-04T02:43:20.190Z,72.82
2023-01-04T02:45:56.116Z,60.33
2023-01-04T02:48:42.468Z,62.15
2023-01-04T02:51:35.389Z,60.30
2023-01-04T02:54:08.010Z,55.15
2023-01-04T02:57:32.381Z,66.33
2023-01-04T03:00:44.970Z,59.98
2023-01-04T03:03:39.519Z,59.77
2023-01-04T03:06:21.587Z,62.70
2023-01-04T03:09:03.533Z,59.65
2023-01-04T03:11:56.642Z,61.65
2023-01-04T03:14:31.715Z,62.25
2023-01-04T03:17:01.603Z,68.65
2023-01-04T03:19:49.849Z,69.22
2023-01-04T03:22:41.195Z,66.12
2023-01-04T03:25:27.704Z,70.00
2023-01-04T03:28:15.582Z,69.12
2023-01-04T03:31:19.116Z,64.85
2023-01-04T03:34:05.381Z,67.87
2023-01-04T03:36:44.900Z,59.38
2023-01-04T03:39:48.532Z,55.15
2023-01-04T03:42:56.465Z,59.40
2023-01-04T03:45:47.775Z,58.60
2023-01-04T03:48:31.005Z,58.10
2023-01-04T03:51:15.416Z,61.25
2023-01-04T03:53:57.341Z,58.55
2023-01-04T03:56:28.164Z,60.10
2023-01-04T03:58:56.041Z,58.92
2023-01-04T04:01:26.201Z,61.48
2023-01-04T04:04:13.358Z,66.02
2023-01-04T04:06:59.851Z,59.53
2023-01-04T04:09:27.684Z,62.08
2023-01-04T04:11:55.673Z,60.70
2023-01-04T04:14:23.728Z,55.85
2023-01-04T04:16:51.724Z,120.25
2023-01-04T04:19:19.800Z,178.95
2023-01-04T04:21:47.554Z,87.85
2023-01-04T04:24:22.639Z,75.30
2023-01-04T04:26:51.762Z,69.30
2023-01-04T04:29:19.689Z,71.55
2023-01-04T04:31:47.654Z,68.92
2023-01-04T04:34:15.487Z,73.90
2023-01-04T04:36:43.326Z,78.78
2023-01-04T04:39:11.994Z,73.33
2023-01-04T04:41:43.255Z,75.60
2023-01-04T04:44:15.977Z,69.97
2023-01-04T04:46:44.802Z,65.45
2023-01-04T04:49:16.053Z,57.05
2023-01-04T04:51:45.170Z,54.23
2023-01-04T04:54:17.017Z,52.85
2023-01-04T04:56:44.831Z,50.17
2023-01-04T04:59:12.618Z,53.60
2023-01-04T05:01:40.715Z,51.18
2023-01-04T05:04:08.815Z,52.27
2023-01-04T05:06:36.458Z,52.88
2023-01-04T05:09:04.249Z,50.12
2023-01-04T05:11:50.330Z,59.18
2023-01-04T05:14:18.456Z,53.38
2023-01-04T05:16:46.374Z,65.28
2023-01-04T05:19:14.083Z,158.70
2023-01-04T05:21:41.895Z,220.25
2023-01-04T05:24:12.149Z,156.28
2023-01-04T05:26:40.154Z,93.62
2023-01-04T05:29:09.636Z,66.65
2023-01-04T05:31:38.102Z,60.03
2023-01-04T05:34:05.866Z,53.35
2023-01-04T05:36:33.577Z,54.73
2023-01-04T05:39:01.460Z,50.45
2023-01-04T05:41:47.391Z,48.42
2023-01-04T05:44:15.377Z,49.15
2023-01-04T05:46:43.123Z,47.62
2023-01-04T05:49:11.133Z,50.05
2023-01-04T05:51:38.939Z,45.50
2023-01-04T05:54:06.483Z,51.73
2023-01-04T05:56:34.229Z,50.23
2023-01-04T05:59:02.093Z,84.25
2023-01-04T06:01:29.957Z,76.20
2023-01-04T06:03:57.900Z,103.58
2023-01-04T06:06:25.712Z,113.37
2023-01-04T06:08:53.454Z,78.52
2023-01-04T06:11:27.192Z,57.95
2023-01-04T06:13:50.952Z,47.55
2023-01-04T06:16:19.196Z,46.28
2023-01-04T06:18:47.006Z,45.03
2023-01-04T06:21:14.951Z,46.28
2023-01-04T06:23:42.486Z,44.05
2023-01-04T06:26:10.215Z,49.08
2023-01-04T06:28:41.001Z,45.90
2023-01-04T06:31:09.544Z,52.27
2023-01-04T06:33:37.647Z,51.45
2023-01-04T06:36:06.340Z,51.15
2023-01-04T06:38:34.393Z,48.65
2023-01-04T06:41:02.143Z,52.58
2023-01-04T06:43:30.061Z,48.30
2023-01-04T06:45:58.128Z,47.38
2023-01-04T06:48:25.961Z,45.35
2023-01-04T06:50:53.604Z,48.13
2023-01-04T06:53:21.570Z,45.48
2023-01-04T06:55:49.367Z,45.95
2023-01-04T06:58:17.354Z,46.63
2023-01-04T07:00:46.637Z,50.90
2023-01-04T07:03:16.196Z,48.08
2023-01-04T07:05:44.597Z,49.30
2023-01-04T07:08:14.814Z,48.52
2023-01-04T07:10:42.665Z,55.70
2023-01-04T07:13:10.900Z,57.78
2023-01-04T07:15:41.022Z,56.37
2023-01-04T07:18:10.610Z,59.63
2023-01-04T07:20:39.082Z,59.50
2023-01-04T07:23:07.977Z,58.13
2023-01-04T07:25:35.952Z,62.17
2023-01-04T07:28:04.176Z,59.03
2023-01-04T07:30:32.161Z,69.42
2023-01-04T07:33:00.242Z,69.03
2023-01-04T07:35:28.602Z,75.57
2023-01-04T07:37:58.915Z,72.32
2023-01-04T07:40:27.399Z,82.30
2023-01-04T07:42:57.550Z,83.40
2023-01-04T07:45:25.769Z,82.05
2023-01-04T07:47:53.354Z,100.67
2023-01-04T07:50:21.195Z,90.50
2023-01-04T07:52:48.823Z,84.17
2023-01-04T07:55:16.818Z,70.57
2023-01-04T07:57:44.724Z,73.45
2023-01-04T08:00:13.457Z,80.72
2023-01-04T08:02:42.687Z,89.17
2023-01-04T08:05:10.925Z,87.80
2023-01-04T08:07:38.885Z,92.00
2023-01-04T08:10:08.282Z,114.70
2023-01-04T08:12:36.159Z,106.72
2023-01-04T08:15:04.722Z,94.55
2023-01-04T08:17:33.607Z,101.45
2023-01-04T08:20:03.667Z,135.20
2023-01-04T08:22:35.061Z,104.67
2023-01-04T08:25:02.957Z,110.95
2023-01-04T08:27:31.025Z,110.03
2023-01-04T08:29:59.201Z,104.35
2023-01-04T08:32:27.555Z,101.20
2023-01-04T08:34:57.343Z,95.50
2023-01-04T08:37:25.182Z,100.33
2023-01-04T08:39:52.956Z,106.83
2023-01-04T08:42:28.638Z,102.22
2023-01-04T08:44:52.969Z,120.55
2023-01-04T08:47:19.998Z,135.22
2023-01-04T08:49:48.105Z,128.05
2023-01-04T08:52:15.938Z,112.40
2023-01-04T08:54:43.957Z,126.05
2023-01-04T08:57:11.669Z,136.15
2023-01-04T08:59:41.512Z,118.15
2023-01-04T09:02:27.496Z,111.08
2023-01-04T09:04:58.233Z,113.12
2023-01-04T09:07:31.592Z,127.67
2023-01-04T09:10:03.082Z,114.50
2023-01-04T09:12:31.326Z,116.50
2023-01-04T09:15:09.578Z,108.50
2023-01-04T09:17:58.006Z,107.97
2023-01-04T09:20:11.857Z,191.88
2023-01-04T09:22:50.117Z,150.97
2023-01-04T09:25:26.330Z,136.03
2023-01-04T09:27:55.078Z,118.82
2023-01-04T09:30:23.238Z,135.28
2023-01-04T09:32:51.574Z,140.45
2023-01-04T09:35:19.763Z,140.73
2023-01-04T09:37:54.951Z,139.88
2023-01-04T09:43:20.623Z,139.77
2023-01-04T09:45:30.398Z,169.32
2023-01-04T09:48:11.348Z,208.65
2023-01-04T09:50:50.289Z,213.12
2023-01-04T09:53:30.091Z,222.45
2023-01-04T09:56:12.466Z,191.77
2023-01-04T09:58:48.904Z,154.35
2023-01-04T10:01:52.052Z,131.43
2023-01-04T10:04:47.805Z,94.28
2023-01-04T10:07:33.884Z,82.10
2023-01-04T10:10:06.359Z,78.57
2023-01-04T10:13:03.923Z,75.92
2023-01-04T10:19:23.922Z,69.80
2023-01-04T10:22:00.075Z,71.87
2023-01-04T12:46:07.046Z,14.53
2023-01-04T12:52:42.584Z,14.93
2023-01-04T13:17:28.866Z,27.40
2023-01-04T13:30:29.490Z,26.40
2023-01-04T13:36:42.246Z,31.70
2023-01-04T14:12:11.063Z,55.03
2023-01-04T14:15:08.434Z,63.98
2023-01-04T14:17:56.657Z,87.12
2023-01-04T14:20:38.409Z,53.65
2023-01-04T14:23:17.622Z,57.62
2023-01-04T14:25:52.826Z,56.10
2023-01-04T14:28:28.390Z,51.15
2023-01-04T14:31:06.333Z,71.25
2023-01-04T14:33:39.711Z,113.40
2023-01-04T14:36:26.169Z,126.38
2023-01-04T14:39:09.565Z,80.12
2023-01-04T14:41:45.488Z,68.28
2023-01-04T14:44:17.144Z,53.80
2023-01-04T14:46:48.524Z,58.80
2023-01-04T14:49:16.740Z,53.78
2023-01-04T14:51:54.718Z,47.85
2023-01-04T14:54:25.589Z,47.15
2023-01-04T14:56:56.335Z,47.83
2023-01-04T14:59:24.745Z,47.13
2023-01-04T15:01:57.164Z,46.77
2023-01-04T15:04:26.540Z,50.47
2023-01-04T15:06:58.621Z,50.92
2023-01-04T15:09:28.354Z,73.65
2023-01-04T15:11:56.588Z,136.28
2023-01-04T15:14:24.734Z,137.97
2023-01-04T15:16:52.695Z,108.65
2023-01-04T15:19:20.455Z,94.13
2023-01-04T15:21:52.411Z,68.83
2023-01-04T15:24:20.157Z,78.10
2023-01-04T15:26:48.653Z,90.20
2023-01-04T15:29:16.596Z,108.57
2023-01-04T15:31:44.777Z,113.00
2023-01-04T15:34:14.179Z,120.22
2023-01-04T15:36:44.255Z,113.00
2023-01-04T15:39:14.218Z,102.82
2023-01-04T15:42:00.623Z,92.27
2023-01-04T15:44:28.416Z,81.10
2023-01-04T15:46:58.145Z,81.10
2023-01-04T15:49:26.106Z,72.17
2023-01-04T15:51:54.017Z,70.85
2023-01-04T15:54:27.483Z,73.95
2023-01-04T15:56:55.930Z,63.40
2023-01-04T15:59:23.933Z,60.73
2023-01-04T16:01:51.971Z,57.65
2023-01-04T16:04:19.852Z,66.07
2023-01-04T16:06:48.003Z,48.08
2023-01-04T16:09:16.158Z,78.30
2023-01-04T16:11:49.156Z,82.47
2023-01-04T16:14:17.216Z,55.78
2023-01-04T16:16:45.228Z,55.65
2023-01-04T16:19:13.007Z,52.08
2023-01-04T16:21:41.989Z,56.73
2023-01-04T16:24:29.561Z,57.90
2023-01-04T16:26:42.070Z,55.45
2023-01-04T16:29:11.804Z,64.55
2023-01-04T16:31:40.000Z,268.42
2023-01-04T16:34:11.275Z,162.65
2023-01-04T16:36:39.337Z,77.87
2023-01-04T16:39:08.165Z,66.75
2023-01-04T16:41:40.209Z,72.08
2023-01-04T16:44:09.735Z,72.65
2023-01-04T16:46:39.412Z,69.60
2023-01-04T16:49:11.252Z,71.05
2023-01-04T16:51:45.045Z,75.00
2023-01-04T16:54:16.583Z,69.10
2023-01-04T16:56:50.972Z,69.17
2023-01-04T16:59:19.648Z,70.08
2023-01-04T17:01:57.713Z,62.67
2023-01-04T17:04:21.286Z,68.30
2023-01-04T17:06:51.670Z,66.30
2023-01-04T17:09:21.763Z,59.58
2023-01-04T17:14:32.900Z,77.67
2023-01-04T17:17:02.372Z,70.37
2023-01-04T17:19:30.892Z,85.62
2023-01-04T17:21:59.406Z,92.80
2023-01-04T17:24:27.518Z,94.60
2023-01-04T17:26:55.591Z,99.22
2023-01-04T17:29:23.664Z,136.35
2023-01-04T17:31:53.045Z,118.15
2023-01-04T17:34:23.221Z,297.07
2023-01-04T17:36:51.336Z,175.20
2023-01-04T17:39:20.460Z,123.78
2023-01-04T17:41:48.358Z,139.22
2023-01-04T17:44:16.323Z,152.25
2023-01-04T17:46:47.934Z,153.42
2023-01-04T17:49:27.543Z,135.07
2023-01-04T17:51:45.577Z,150.03
2023-01-04T17:54:13.999Z,156.80
2023-01-04T17:56:41.944Z,240.60
2023-01-04T17:59:12.508Z,231.70
2023-01-04T18:01:44.074Z,250.50
2023-01-04T18:04:12.158Z,236.52
2023-01-04T18:06:40.092Z,299.40
2023-01-04T18:09:08.679Z,245.88
2023-01-04T18:11:39.176Z,223.50
2023-01-04T18:14:10.251Z,216.27
2023-01-04T18:16:40.261Z,205.62
2023-01-04T18:19:08.501Z,226.37
2023-01-04T18:21:36.404Z,220.42
2023-01-04T18:27:10.736Z,221.57
2023-01-04T18:29:08.066Z,227.90
2023-01-04T18:31:35.789Z,200.65
2023-01-04T18:34:05.609Z,201.50
2023-01-04T18:36:42.468Z,205.57
2023-01-04T18:39:06.605Z,203.42
2023-01-04T18:41:35.623Z,212.20
2023-01-04T18:44:31.341Z,207.67
2023-01-04T18:46:32.981Z,204.65
2023-01-04T18:49:02.697Z,206.82
2023-01-04T18:51:30.277Z,198.53
2023-01-04T18:53:58.071Z,192.47
2023-01-04T18:56:28.757Z,191.07
2023-01-04T18:58:57.552Z,216.57
2023-01-04T19:01:27.893Z,216.88
2023-01-04T19:03:56.698Z,274.60
2023-01-04T19:06:24.753Z,288.68
2023-01-04T19:09:01.462Z,278.65
2023-01-04T19:11:26.352Z,251.58
2023-01-04T19:13:54.724Z,234.45
2023-01-04T19:16:23.443Z,239.72
2023-01-04T19:18:51.110Z,215.47
2023-01-04T19:21:19.146Z,199.80
2023-01-04T19:23:47.471Z,183.45
2023-01-04T19:26:15.128Z,187.72
2023-01-04T19:28:43.017Z,186.70
2023-01-04T19:31:12.462Z,189.15
2023-01-04T19:33:41.041Z,187.05
2023-01-04T19:36:11.265Z,190.32
2023-01-04T19:38:41.374Z,183.62
2023-01-04T19:41:14.553Z,172.55
2023-01-04T19:43:42.598Z,192.25
2023-01-04T19:46:14.121Z,196.57
2023-01-04T19:48:44.884Z,171.90
2023-01-04T19:51:18.480Z,173.43
2023-01-04T19:53:46.453Z,153.57
2023-01-04T19:56:16.313Z,121.90
2023-01-04T19:58:44.452Z,106.78
2023-01-04T20:01:16.756Z,105.70
2023-01-04T20:03:44.931Z,109.78
2023-01-04T20:06:14.707Z,114.32
2023-01-04T20:08:45.197Z,111.80
2023-01-04T20:11:13.424Z,106.58
2023-01-04T20:13:41.191Z,104.47
2023-01-04T20:16:10.977Z,108.15
2023-01-04T20:18:39.073Z,108.80
2023-01-04T20:21:12.548Z,98.65
2023-01-04T20:23:43.204Z,105.80
2023-01-04T20:26:15.415Z,106.92
2023-01-04T20:28:45.368Z,105.87
2023-01-04T20:31:16.800Z,105.75
2023-01-04T20:33:46.537Z,108.52
2023-01-04T20:36:19.060Z,112.42
2023-01-04T20:38:48.035Z,120.60
2023-01-04T20:41:19.974Z,115.55
2023-01-04T20:43:48.590Z,116.85
2023-01-04T20:46:30.613Z,117.45
2023-01-04T20:49:00.713Z,115.47
2023-01-04T20:51:30.467Z,118.13
2023-01-04T20:53:59.407Z,123.40
2023-01-04T20:56:30.915Z,131.65
2023-01-04T20:58:58.850Z,123.50
2023-01-04T21:01:27.014Z,115.95
2023-01-04T21:03:54.961Z,124.20
2023-01-04T21:06:23.386Z,130.85
2023-01-04T21:08:54.235Z,129.53
2023-01-04T21:11:22.247Z,149.18
2023-01-04T21:13:51.491Z,131.15
2023-01-04T21:16:19.200Z,124.70
2023-01-04T21:18:47.447Z,109.40
2023-01-04T21:21:17.593Z,90.47
2023-01-04T21:23:49.502Z,97.67
2023-01-04T21:26:20.511Z,86.65
2023-01-04T21:28:48.167Z,93.78
2023-01-04T21:31:19.692Z,102.45
2023-01-04T21:33:48.093Z,103.47
2023-01-04T21:36:27.618Z,119.62
2023-01-04T21:38:58.303Z,132.87
2023-01-04T21:41:26.664Z,116.70
2023-01-04T21:43:57.288Z,128.90
2023-01-04T21:46:26.573Z,109.40
2023-01-04T21:48:57.707Z,99.75
2023-01-04T21:51:29.471Z,103.97
2023-01-04T21:53:58.251Z,100.80
2023-01-04T21:56:26.206Z,93.95
2023-01-04T21:58:53.979Z,93.85
2023-01-04T22:01:31.002Z,114.28
2023-01-04T22:03:56.388Z,130.63
2023-01-04T22:06:25.448Z,113.37
2023-01-04T22:08:55.090Z,98.92
2023-01-04T22:11:22.928Z,99.32
2023-01-04T22:13:51.061Z,93.72
2023-01-04T22:16:18.813Z,99.40
2023-01-04T22:18:50.883Z,99.47
2023-01-04T22:21:22.854Z,95.87
2023-01-04T22:23:51.839Z,104.43
2023-01-04T22:26:19.598Z,101.42
2023-01-04T22:28:47.377Z,90.32
2023-01-04T22:31:15.616Z,83.12
2023-01-04T22:33:43.480Z,123.40
2023-01-04T22:36:21.729Z,153.40
2023-01-04T22:38:45.896Z,163.40
2023-01-04T22:41:16.404Z,98.15
2023-01-04T22:43:44.910Z,101.42
2023-01-04T22:46:17.157Z,104.87
2023-01-04T22:48:45.865Z,103.62
2023-01-04T22:51:16.842Z,87.45
2023-01-04T22:53:45.300Z,97.88
2023-01-04T22:56:19.493Z,96.40
2023-01-04T22:58:52.094Z,87.95
2023-01-04T23:01:15.710Z,73.50
2023-01-04T23:03:43.634Z,78.28
2023-01-04T23:06:13.026Z,68.65
2023-01-04T23:08:41.261Z,81.00
2023-01-04T23:11:16.505Z,80.85
2023-01-04T23:16:15.657Z,82.62
2023-01-04T23:18:43.634Z,76.20
2023-01-04T23:21:12.624Z,85.87
2023-01-04T23:23:40.469Z,102.82
2023-01-04T23:26:21.193Z,72.37
2023-01-04T23:28:49.870Z,44.80
2023-01-04T23:31:22.042Z,40.95
2023-01-04T23:33:55.555Z,42.85
2023-01-04T23:36:28.053Z,41.48
2023-01-04T23:38:58.831Z,32.42
2023-01-04T23:41:45.857Z,32.05
2023-01-04T23:47:01.237Z,30.57
2023-01-04T23:49:31.693Z,38.25
2023-01-04T23:52:00.145Z,74.90
2023-01-04T23:54:29.064Z,65.40
2023-01-04T23:56:57.376Z,50.15
2023-01-04T23:59:25.422Z,35.20
